sensor_id;sensor_type;location;lat;lon;timestamp;P1;durP1;ratioP1;P2;durP2;ratioP2
4616;SDS011;2321;42.704;23.384;2023-07-20T00:02:39;36.05;;;30.10;;
4616;SDS011;2321;42.704;23.384;2023-07-20T00:05:07;20.92;;;18.90;;
4616;SDS011;2321;42.704;23.384;2023-07-20T00:14:54;40.45;;;32.03;;
4616;SDS011;2321;42.704;23.384;2023-07-20T00:19:47;44.10;;;32.20;;
4616;SDS011;2321;42.704;23.384;2023-07-20T00:39:24;40.83;;;31.52;;
4616;SDS011;2321;42.704;23.384;2023-07-20T00:44:18;33.75;;;28.15;;
4616;SDS011;2321;42.704;23.384;2023-07-20T00:56:32;13.35;;;12.30;;
4616;SDS011;2321;42.704;23.384;2023-07-20T00:58:59;50.33;;;31.27;;
4616;SDS011;2321;42.704;23.384;2023-07-20T01:01:26;50.53;;;32.77;;
4616;SDS011;2321;42.704;23.384;2023-07-20T01:03:53;74.73;;;38.87;;
4616;SDS011;2321;42.704;23.384;2023-07-20T01:06:24;58.23;;;34.80;;
4616;SDS011;2321;42.704;23.384;2023-07-20T01:08:57;75.30;;;38.83;;
4616;SDS011;2321;42.704;23.384;2023-07-20T01:11:36;73.20;;;38.30;;
4616;SDS011;2321;42.704;23.384;2023-07-20T01:14:06;56.70;;;32.87;;
4616;SDS011;2321;42.704;23.384;2023-07-20T01:16:34;67.23;;;36.87;;
4616;SDS011;2321;42.704;23.384;2023-07-20T01:19:00;71.93;;;37.73;;
4616;SDS011;2321;42.704;23.384;2023-07-20T01:21:32;66.40;;;36.30;;
4616;SDS011;2321;42.704;23.384;2023-07-20T01:24:15;82.47;;;39.40;;
4616;SDS011;2321;42.704;23.384;2023-07-20T01:30:11;69.77;;;36.93;;
4616;SDS011;2321;42.704;23.384;2023-07-20T01:32:49;74.97;;;39.30;;
4616;SDS011;2321;42.704;23.384;2023-07-20T01:35:19;82.13;;;39.87;;
4616;SDS011;2321;42.704;23.384;2023-07-20T01:37:50;65.20;;;37.00;;
4616;SDS011;2321;42.704;23.384;2023-07-20T01:40:19;71.90;;;38.50;;
4616;SDS011;2321;42.704;23.384;2023-07-20T01:42:47;72.20;;;37.97;;
4616;SDS011;2321;42.704;23.384;2023-07-20T01:45:14;78.17;;;39.63;;
4616;SDS011;2321;42.704;23.384;2023-07-20T01:47:41;25.83;;;12.97;;
4616;SDS011;2321;42.704;23.384;2023-07-20T01:50:10;20.53;;;11.13;;
4616;SDS011;2321;42.704;23.384;2023-07-20T01:52:37;7.07;;;3.80;;
4616;SDS011;2321;42.704;23.384;2023-07-20T01:55:04;6.67;;;5.63;;
4616;SDS011;2321;42.704;23.384;2023-07-20T01:57:32;4.03;;;2.23;;
4616;SDS011;2321;42.704;23.384;2023-07-20T08:14:51;52.35;;;35.60;;
4616;SDS011;2321;42.704;23.384;2023-07-20T08:36:53;32.05;;;28.65;;
4616;SDS011;2321;42.704;23.384;2023-07-20T08:49:09;11.80;;;11.15;;
4616;SDS011;2321;42.704;23.384;2023-07-20T09:18:39;20.75;;;19.27;;
4616;SDS011;2321;42.704;23.384;2023-07-20T10:25:11;35.75;;;30.00;;
4616;SDS011;2321;42.704;23.384;2023-07-20T10:27:39;46.43;;;31.87;;
4616;SDS011;2321;42.704;23.384;2023-07-20T10:30:07;50.03;;;33.07;;
4616;SDS011;2321;42.704;23.384;2023-07-20T10:32:34;57.10;;;34.90;;
4616;SDS011;2321;42.704;23.384;2023-07-20T10:35:01;54.17;;;34.27;;
4616;SDS011;2321;42.704;23.384;2023-07-20T10:37:48;53.37;;;33.53;;
4616;SDS011;2321;42.704;23.384;2023-07-20T10:40:33;60.73;;;35.70;;
4616;SDS011;2321;42.704;23.384;2023-07-20T10:43:02;53.30;;;34.00;;
4616;SDS011;2321;42.704;23.384;2023-07-20T10:45:35;51.97;;;33.20;;
4616;SDS011;2321;42.704;23.384;2023-07-20T10:48:05;56.23;;;34.87;;
4616;SDS011;2321;42.704;23.384;2023-07-20T10:50:39;62.47;;;36.47;;
4616;SDS011;2321;42.704;23.384;2023-07-20T10:53:10;64.37;;;36.03;;
4616;SDS011;2321;42.704;23.384;2023-07-20T10:55:39;68.10;;;37.43;;
4616;SDS011;2321;42.704;23.384;2023-07-20T10:58:08;73.17;;;38.23;;
4616;SDS011;2321;42.704;23.384;2023-07-20T11:00:36;92.50;;;41.33;;
4616;SDS011;2321;42.704;23.384;2023-07-20T11:03:04;56.43;;;35.10;;
4616;SDS011;2321;42.704;23.384;2023-07-20T11:05:31;67.47;;;37.23;;
4616;SDS011;2321;42.704;23.384;2023-07-20T11:07:59;64.77;;;36.37;;
4616;SDS011;2321;42.704;23.384;2023-07-20T11:10:27;68.60;;;37.33;;
4616;SDS011;2321;42.704;23.384;2023-07-20T11:16:01;65.10;;;36.37;;
4616;SDS011;2321;42.704;23.384;2023-07-20T11:18:31;71.40;;;38.37;;
4616;SDS011;2321;42.704;23.384;2023-07-20T11:21:00;84.57;;;40.40;;
4616;SDS011;2321;42.704;23.384;2023-07-20T11:23:28;76.70;;;38.97;;
4616;SDS011;2321;42.704;23.384;2023-07-20T11:25:57;75.83;;;38.70;;
4616;SDS011;2321;42.704;23.384;2023-07-20T11:28:26;81.90;;;40.77;;
4616;SDS011;2321;42.704;23.384;2023-07-20T11:30:56;75.90;;;39.50;;
4616;SDS011;2321;42.704;23.384;2023-07-20T11:33:23;75.30;;;38.60;;
4616;SDS011;2321;42.704;23.384;2023-07-20T11:35:50;80.90;;;39.63;;
4616;SDS011;2321;42.704;23.384;2023-07-20T11:38:18;88.80;;;41.90;;
4616;SDS011;2321;42.704;23.384;2023-07-20T11:40:45;85.53;;;40.93;;
4616;SDS011;2321;42.704;23.384;2023-07-20T11:43:12;87.27;;;41.23;;
4616;SDS011;2321;42.704;23.384;2023-07-20T11:45:41;87.03;;;40.83;;
4616;SDS011;2321;42.704;23.384;2023-07-20T11:48:13;95.97;;;42.70;;
4616;SDS011;2321;42.704;23.384;2023-07-20T11:50:41;85.03;;;40.77;;
4616;SDS011;2321;42.704;23.384;2023-07-20T11:53:08;91.20;;;42.07;;
4616;SDS011;2321;42.704;23.384;2023-07-20T11:55:35;90.77;;;41.37;;
4616;SDS011;2321;42.704;23.384;2023-07-20T11:58:03;83.83;;;39.47;;
4616;SDS011;2321;42.704;23.384;2023-07-20T12:00:30;97.37;;;43.07;;
4616;SDS011;2321;42.704;23.384;2023-07-20T12:02:59;91.60;;;42.77;;
4616;SDS011;2321;42.704;23.384;2023-07-20T12:05:26;90.83;;;41.37;;
4616;SDS011;2321;42.704;23.384;2023-07-20T12:07:54;93.60;;;42.27;;
4616;SDS011;2321;42.704;23.384;2023-07-20T12:10:24;93.23;;;42.07;;
4616;SDS011;2321;42.704;23.384;2023-07-20T12:12:53;90.43;;;42.00;;
4616;SDS011;2321;42.704;23.384;2023-07-20T12:15:21;84.00;;;40.60;;
4616;SDS011;2321;42.704;23.384;2023-07-20T12:17:49;82.43;;;39.60;;
4616;SDS011;2321;42.704;23.384;2023-07-20T12:20:29;64.50;;;36.60;;
4616;SDS011;2321;42.704;23.384;2023-07-20T12:22:57;74.27;;;38.83;;
4616;SDS011;2321;42.704;23.384;2023-07-20T12:25:37;69.00;;;37.93;;
4616;SDS011;2321;42.704;23.384;2023-07-20T12:28:06;75.77;;;39.03;;
4616;SDS011;2321;42.704;23.384;2023-07-20T12:30:33;77.10;;;39.23;;
4616;SDS011;2321;42.704;23.384;2023-07-20T12:33:01;70.57;;;37.60;;
4616;SDS011;2321;42.704;23.384;2023-07-20T12:35:30;76.37;;;38.53;;
4616;SDS011;2321;42.704;23.384;2023-07-20T12:37:57;80.30;;;39.83;;
4616;SDS011;2321;42.704;23.384;2023-07-20T12:40:24;75.30;;;38.03;;
4616;SDS011;2321;42.704;23.384;2023-07-20T12:42:52;69.63;;;36.63;;
4616;SDS011;2321;42.704;23.384;2023-07-20T12:45:19;71.80;;;38.53;;
4616;SDS011;2321;42.704;23.384;2023-07-20T12:47:46;51.87;;;32.73;;
4616;SDS011;2321;42.704;23.384;2023-07-20T12:50:13;68.33;;;37.50;;
4616;SDS011;2321;42.704;23.384;2023-07-20T12:52:41;76.13;;;39.10;;
4616;SDS011;2321;42.704;23.384;2023-07-20T12:55:08;65.93;;;36.67;;
4616;SDS011;2321;42.704;23.384;2023-07-20T12:57:36;72.37;;;38.43;;
4616;SDS011;2321;42.704;23.384;2023-07-20T13:00:04;73.37;;;39.23;;
4616;SDS011;2321;42.704;23.384;2023-07-20T13:02:33;72.93;;;37.90;;
4616;SDS011;2321;42.704;23.384;2023-07-20T13:05:00;80.03;;;39.97;;
4616;SDS011;2321;42.704;23.384;2023-07-20T13:07:30;90.87;;;41.60;;
4616;SDS011;2321;42.704;23.384;2023-07-20T13:09:59;85.40;;;40.47;;
4616;SDS011;2321;42.704;23.384;2023-07-20T13:12:26;87.33;;;41.13;;
4616;SDS011;2321;42.704;23.384;2023-07-20T13:14:54;80.97;;;40.43;;
4616;SDS011;2321;42.704;23.384;2023-07-20T13:17:21;80.93;;;39.53;;
4616;SDS011;2321;42.704;23.384;2023-07-20T13:19:48;85.83;;;41.20;;
4616;SDS011;2321;42.704;23.384;2023-07-20T13:22:15;84.87;;;40.67;;
4616;SDS011;2321;42.704;23.384;2023-07-20T13:24:41;80.03;;;39.83;;
4616;SDS011;2321;42.704;23.384;2023-07-20T13:27:12;82.70;;;40.63;;
4616;SDS011;2321;42.704;23.384;2023-07-20T13:29:39;78.67;;;39.20;;
4616;SDS011;2321;42.704;23.384;2023-07-20T13:32:06;78.83;;;39.93;;
4616;SDS011;2321;42.704;23.384;2023-07-20T13:34:34;84.37;;;40.50;;
4616;SDS011;2321;42.704;23.384;2023-07-20T13:37:01;92.00;;;41.03;;
4616;SDS011;2321;42.704;23.384;2023-07-20T13:39:28;85.47;;;40.30;;
4616;SDS011;2321;42.704;23.384;2023-07-20T13:41:55;91.43;;;41.30;;
4616;SDS011;2321;42.704;23.384;2023-07-20T13:44:23;91.10;;;41.17;;
4616;SDS011;2321;42.704;23.384;2023-07-20T13:46:50;88.87;;;40.53;;
4616;SDS011;2321;42.704;23.384;2023-07-20T13:49:17;84.03;;;39.53;;
4616;SDS011;2321;42.704;23.384;2023-07-20T13:51:44;76.60;;;39.33;;
4616;SDS011;2321;42.704;23.384;2023-07-20T13:54:10;84.45;;;41.10;;
4616;SDS011;2321;42.704;23.384;2023-07-20T13:56:37;87.40;;;41.17;;
4616;SDS011;2321;42.704;23.384;2023-07-20T13:59:04;94.77;;;42.23;;
4616;SDS011;2321;42.704;23.384;2023-07-20T14:01:33;96.50;;;42.17;;
4616;SDS011;2321;42.704;23.384;2023-07-20T14:04:00;91.33;;;41.67;;
4616;SDS011;2321;42.704;23.384;2023-07-20T14:08:56;111.43;;;44.50;;
4616;SDS011;2321;42.704;23.384;2023-07-20T14:11:23;96.43;;;42.00;;
4616;SDS011;2321;42.704;23.384;2023-07-20T14:13:50;104.43;;;43.87;;
4616;SDS011;2321;42.704;23.384;2023-07-20T14:16:18;78.33;;;38.87;;
4616;SDS011;2321;42.704;23.384;2023-07-20T14:18:46;96.97;;;42.43;;
4616;SDS011;2321;42.704;23.384;2023-07-20T14:21:14;89.60;;;41.60;;
4616;SDS011;2321;42.704;23.384;2023-07-20T14:23:40;91.57;;;41.73;;
4616;SDS011;2321;42.704;23.384;2023-07-20T14:26:07;87.23;;;41.07;;
4616;SDS011;2321;42.704;23.384;2023-07-20T14:28:34;96.67;;;42.33;;
4616;SDS011;2321;42.704;23.384;2023-07-20T14:31:01;97.80;;;41.57;;
4616;SDS011;2321;42.704;23.384;2023-07-20T14:33:28;103.53;;;43.90;;
4616;SDS011;2321;42.704;23.384;2023-07-20T14:35:56;107.67;;;44.67;;
4616;SDS011;2321;42.704;23.384;2023-07-20T14:38:23;103.87;;;43.50;;
4616;SDS011;2321;42.704;23.384;2023-07-20T14:40:50;104.53;;;43.93;;
4616;SDS011;2321;42.704;23.384;2023-07-20T14:43:17;103.83;;;44.03;;
4616;SDS011;2321;42.704;23.384;2023-07-20T14:45:44;104.43;;;43.87;;
4616;SDS011;2321;42.704;23.384;2023-07-20T14:48:11;92.03;;;41.67;;
4616;SDS011;2321;42.704;23.384;2023-07-20T14:50:37;98.23;;;43.00;;
4616;SDS011;2321;42.704;23.384;2023-07-20T14:53:06;99.60;;;42.97;;
4616;SDS011;2321;42.704;23.384;2023-07-20T14:55:32;96.10;;;42.60;;
4616;SDS011;2321;42.704;23.384;2023-07-20T14:57:59;101.73;;;44.60;;
4616;SDS011;2321;42.704;23.384;2023-07-20T15:00:26;104.13;;;43.87;;
4616;SDS011;2321;42.704;23.384;2023-07-20T15:02:55;105.77;;;43.43;;
4616;SDS011;2321;42.704;23.384;2023-07-20T15:05:22;112.27;;;45.33;;
4616;SDS011;2321;42.704;23.384;2023-07-20T15:07:50;106.90;;;44.27;;
4616;SDS011;2321;42.704;23.384;2023-07-20T15:10:18;100.30;;;42.70;;
4616;SDS011;2321;42.704;23.384;2023-07-20T15:12:45;112.47;;;45.20;;
4616;SDS011;2321;42.704;23.384;2023-07-20T15:15:13;103.53;;;43.30;;
4616;SDS011;2321;42.704;23.384;2023-07-20T15:17:41;115.00;;;45.53;;
4616;SDS011;2321;42.704;23.384;2023-07-20T15:20:10;110.00;;;44.50;;
4616;SDS011;2321;42.704;23.384;2023-07-20T15:22:38;109.33;;;44.83;;
4616;SDS011;2321;42.704;23.384;2023-07-20T15:25:06;100.50;;;43.27;;
4616;SDS011;2321;42.704;23.384;2023-07-20T15:27:37;115.93;;;44.77;;
4616;SDS011;2321;42.704;23.384;2023-07-20T15:30:06;122.13;;;45.53;;
4616;SDS011;2321;42.704;23.384;2023-07-20T15:32:34;120.63;;;45.07;;
4616;SDS011;2321;42.704;23.384;2023-07-20T15:35:00;119.17;;;45.40;;
4616;SDS011;2321;42.704;23.384;2023-07-20T15:37:29;111.27;;;44.53;;
4616;SDS011;2321;42.704;23.384;2023-07-20T15:39:56;123.57;;;46.13;;
4616;SDS011;2321;42.704;23.384;2023-07-20T15:42:23;127.30;;;46.93;;
4616;SDS011;2321;42.704;23.384;2023-07-20T15:44:52;114.17;;;44.73;;
4616;SDS011;2321;42.704;23.384;2023-07-20T15:47:19;114.40;;;45.40;;
4616;SDS011;2321;42.704;23.384;2023-07-20T15:49:45;122.20;;;45.27;;
4616;SDS011;2321;42.704;23.384;2023-07-20T15:52:13;123.77;;;46.67;;
4616;SDS011;2321;42.704;23.384;2023-07-20T15:54:40;122.03;;;45.83;;
4616;SDS011;2321;42.704;23.384;2023-07-20T15:57:06;124.63;;;46.20;;
4616;SDS011;2321;42.704;23.384;2023-07-20T15:59:34;128.53;;;47.30;;
4616;SDS011;2321;42.704;23.384;2023-07-20T16:02:03;120.97;;;45.87;;
4616;SDS011;2321;42.704;23.384;2023-07-20T16:04:30;118.23;;;45.90;;
4616;SDS011;2321;42.704;23.384;2023-07-20T16:06:56;117.97;;;45.43;;
4616;SDS011;2321;42.704;23.384;2023-07-20T16:09:24;118.43;;;45.50;;
4616;SDS011;2321;42.704;23.384;2023-07-20T16:11:51;120.60;;;45.60;;
4616;SDS011;2321;42.704;23.384;2023-07-20T16:14:18;119.57;;;45.67;;
4616;SDS011;2321;42.704;23.384;2023-07-20T16:16:45;124.87;;;46.40;;
4616;SDS011;2321;42.704;23.384;2023-07-20T16:19:13;129.73;;;46.87;;
4616;SDS011;2321;42.704;23.384;2023-07-20T16:21:40;133.30;;;47.53;;
4616;SDS011;2321;42.704;23.384;2023-07-20T16:24:07;118.30;;;45.00;;
4616;SDS011;2321;42.704;23.384;2023-07-20T16:26:35;117.00;;;45.13;;
4616;SDS011;2321;42.704;23.384;2023-07-20T16:29:02;115.27;;;44.30;;
4616;SDS011;2321;42.704;23.384;2023-07-20T16:31:28;116.93;;;45.50;;
4616;SDS011;2321;42.704;23.384;2023-07-20T16:33:55;121.13;;;45.67;;
4616;SDS011;2321;42.704;23.384;2023-07-20T16:36:24;120.47;;;45.13;;
4616;SDS011;2321;42.704;23.384;2023-07-20T16:38:51;116.70;;;45.03;;
4616;SDS011;2321;42.704;23.384;2023-07-20T16:41:17;101.20;;;42.77;;
4616;SDS011;2321;42.704;23.384;2023-07-20T16:43:44;121.03;;;47.20;;
4616;SDS011;2321;42.704;23.384;2023-07-20T16:46:11;94.80;;;43.23;;
4616;SDS011;2321;42.704;23.384;2023-07-20T16:48:39;96.63;;;41.73;;
4616;SDS011;2321;42.704;23.384;2023-07-20T16:51:06;94.77;;;41.93;;
4616;SDS011;2321;42.704;23.384;2023-07-20T16:53:34;93.13;;;42.37;;
4616;SDS011;2321;42.704;23.384;2023-07-20T16:56:01;101.57;;;43.93;;
4616;SDS011;2321;42.704;23.384;2023-07-20T16:58:28;102.40;;;42.80;;
4616;SDS011;2321;42.704;23.384;2023-07-20T17:01:01;96.43;;;42.37;;
4616;SDS011;2321;42.704;23.384;2023-07-20T17:03:29;89.27;;;41.43;;
4616;SDS011;2321;42.704;23.384;2023-07-20T17:05:57;97.07;;;42.60;;
4616;SDS011;2321;42.704;23.384;2023-07-20T17:08:24;94.47;;;42.93;;
4616;SDS011;2321;42.704;23.384;2023-07-20T17:10:53;102.07;;;44.97;;
4616;SDS011;2321;42.704;23.384;2023-07-20T17:13:19;95.80;;;45.67;;
4616;SDS011;2321;42.704;23.384;2023-07-20T17:15:46;86.53;;;41.57;;
4616;SDS011;2321;42.704;23.384;2023-07-20T17:18:15;110.70;;;47.63;;
4616;SDS011;2321;42.704;23.384;2023-07-20T17:20:43;90.67;;;41.97;;
4616;SDS011;2321;42.704;23.384;2023-07-20T17:23:10;97.13;;;42.63;;
4616;SDS011;2321;42.704;23.384;2023-07-20T17:25:41;88.27;;;41.33;;
4616;SDS011;2321;42.704;23.384;2023-07-20T17:28:09;67.90;;;37.53;;
4616;SDS011;2321;42.704;23.384;2023-07-20T17:30:36;74.33;;;38.87;;
4616;SDS011;2321;42.704;23.384;2023-07-20T17:33:03;69.83;;;37.73;;
4616;SDS011;2321;42.704;23.384;2023-07-20T17:35:30;71.40;;;38.27;;
4616;SDS011;2321;42.704;23.384;2023-07-20T17:37:57;64.50;;;36.97;;
4616;SDS011;2321;42.704;23.384;2023-07-20T17:40:24;59.23;;;36.10;;
4616;SDS011;2321;42.704;23.384;2023-07-20T17:42:51;48.80;;;33.37;;
4616;SDS011;2321;42.704;23.384;2023-07-20T17:45:19;41.20;;;30.50;;
4616;SDS011;2321;42.704;23.384;2023-07-20T17:47:46;49.23;;;33.33;;
4616;SDS011;2321;42.704;23.384;2023-07-20T17:50:13;62.63;;;35.90;;
4616;SDS011;2321;42.704;23.384;2023-07-20T17:52:41;59.17;;;34.73;;
4616;SDS011;2321;42.704;23.384;2023-07-20T17:55:08;64.77;;;36.63;;
4616;SDS011;2321;42.704;23.384;2023-07-20T17:57:35;59.53;;;35.73;;
4616;SDS011;2321;42.704;23.384;2023-07-20T18:00:02;69.30;;;37.20;;
4616;SDS011;2321;42.704;23.384;2023-07-20T18:02:32;75.13;;;39.10;;
4616;SDS011;2321;42.704;23.384;2023-07-20T18:04:58;70.50;;;37.67;;
4616;SDS011;2321;42.704;23.384;2023-07-20T18:07:25;79.93;;;40.13;;
4616;SDS011;2321;42.704;23.384;2023-07-20T18:09:52;77.33;;;39.60;;
4616;SDS011;2321;42.704;23.384;2023-07-20T18:12:19;81.40;;;39.90;;
4616;SDS011;2321;42.704;23.384;2023-07-20T18:14:46;87.80;;;42.50;;
4616;SDS011;2321;42.704;23.384;2023-07-20T18:17:13;84.80;;;41.07;;
4616;SDS011;2321;42.704;23.384;2023-07-20T18:19:41;77.23;;;39.27;;
4616;SDS011;2321;42.704;23.384;2023-07-20T18:22:08;56.17;;;34.47;;
4616;SDS011;2321;42.704;23.384;2023-07-20T18:24:35;41.25;;;30.02;;
4616;SDS011;2321;42.704;23.384;2023-07-20T18:27:02;53.13;;;34.07;;
4616;SDS011;2321;42.704;23.384;2023-07-20T18:29:29;45.63;;;31.57;;
4616;SDS011;2321;42.704;23.384;2023-07-20T18:31:56;55.17;;;34.77;;
4616;SDS011;2321;42.704;23.384;2023-07-20T18:34:22;48.17;;;32.27;;
4616;SDS011;2321;42.704;23.384;2023-07-20T18:36:51;50.53;;;33.30;;
4616;SDS011;2321;42.704;23.384;2023-07-20T18:39:17;37.07;;;29.10;;
4616;SDS011;2321;42.704;23.384;2023-07-20T18:41:44;40.77;;;30.60;;
4616;SDS011;2321;42.704;23.384;2023-07-20T18:44:11;33.07;;;28.80;;
4616;SDS011;2321;42.704;23.384;2023-07-20T18:46:38;42.33;;;30.47;;
4616;SDS011;2321;42.704;23.384;2023-07-20T18:49:05;35.43;;;28.73;;
4616;SDS011;2321;42.704;23.384;2023-07-20T18:51:31;31.55;;;27.23;;
4616;SDS011;2321;42.704;23.384;2023-07-20T18:54:00;27.73;;;24.90;;
4616;SDS011;2321;42.704;23.384;2023-07-20T18:56:27;41.97;;;30.57;;
4616;SDS011;2321;42.704;23.384;2023-07-20T18:58:54;33.63;;;27.93;;
4616;SDS011;2321;42.704;23.384;2023-07-20T19:01:21;29.17;;;25.67;;
4616;SDS011;2321;42.704;23.384;2023-07-20T19:03:49;25.63;;;23.20;;
4616;SDS011;2321;42.704;23.384;2023-07-20T19:06:15;31.53;;;27.70;;
4616;SDS011;2321;42.704;23.384;2023-07-20T19:08:42;36.78;;;29.55;;
4616;SDS011;2321;42.704;23.384;2023-07-20T19:11:10;39.00;;;29.20;;
4616;SDS011;2321;42.704;23.384;2023-07-20T19:13:37;31.07;;;26.67;;
4616;SDS011;2321;42.704;23.384;2023-07-20T19:16:04;40.10;;;36.35;;
4616;SDS011;2321;42.704;23.384;2023-07-20T19:21:03;28.33;;;25.80;;
4616;SDS011;2321;42.704;23.384;2023-07-20T19:28:24;48.78;;;35.40;;
4616;SDS011;2321;42.704;23.384;2023-07-20T19:30:51;39.53;;;29.87;;
4616;SDS011;2321;42.704;23.384;2023-07-20T19:33:18;27.63;;;24.83;;
4616;SDS011;2321;42.704;23.384;2023-07-20T19:35:45;26.52;;;23.90;;
4616;SDS011;2321;42.704;23.384;2023-07-20T19:38:12;27.63;;;24.80;;
4616;SDS011;2321;42.704;23.384;2023-07-20T19:43:19;41.72;;;34.55;;
4616;SDS011;2321;42.704;23.384;2023-07-20T19:48:15;33.77;;;30.10;;
4616;SDS011;2321;42.704;23.384;2023-07-20T19:50:45;31.67;;;27.07;;
4616;SDS011;2321;42.704;23.384;2023-07-20T19:53:13;23.08;;;21.17;;
4616;SDS011;2321;42.704;23.384;2023-07-20T19:55:40;14.25;;;13.07;;
4616;SDS011;2321;42.704;23.384;2023-07-20T20:03:04;43.15;;;31.80;;
4616;SDS011;2321;42.704;23.384;2023-07-20T20:08:00;75.77;;;41.20;;
4616;SDS011;2321;42.704;23.384;2023-07-20T20:10:28;64.90;;;35.67;;
4616;SDS011;2321;42.704;23.384;2023-07-20T20:15:23;66.30;;;39.85;;
4616;SDS011;2321;42.704;23.384;2023-07-20T20:17:50;50.57;;;33.57;;
4616;SDS011;2321;42.704;23.384;2023-07-20T20:20:18;29.10;;;26.03;;
4616;SDS011;2321;42.704;23.384;2023-07-20T20:22:45;27.63;;;25.02;;
4616;SDS011;2321;42.704;23.384;2023-07-20T20:25:12;42.33;;;30.23;;
4616;SDS011;2321;42.704;23.384;2023-07-20T20:27:39;42.20;;;31.83;;
4616;SDS011;2321;42.704;23.384;2023-07-20T20:30:06;38.55;;;29.63;;
4616;SDS011;2321;42.704;23.384;2023-07-20T20:32:34;29.83;;;26.13;;
4616;SDS011;2321;42.704;23.384;2023-07-20T20:35:05;35.55;;;28.42;;
4616;SDS011;2321;42.704;23.384;2023-07-20T20:37:34;30.05;;;26.77;;
4616;SDS011;2321;42.704;23.384;2023-07-20T20:40:00;39.88;;;29.35;;
4616;SDS011;2321;42.704;23.384;2023-07-20T20:42:27;33.58;;;28.42;;
4616;SDS011;2321;42.704;23.384;2023-07-20T20:44:54;31.92;;;28.33;;
4616;SDS011;2321;42.704;23.384;2023-07-20T20:47:21;26.77;;;24.25;;
4616;SDS011;2321;42.704;23.384;2023-07-20T20:49:49;40.10;;;31.52;;
4616;SDS011;2321;42.704;23.384;2023-07-20T20:52:18;47.50;;;32.80;;
4616;SDS011;2321;42.704;23.384;2023-07-20T20:54:47;41.33;;;31.10;;
4616;SDS011;2321;42.704;23.384;2023-07-20T20:57:14;45.47;;;31.77;;
4616;SDS011;2321;42.704;23.384;2023-07-20T20:59:42;47.08;;;31.77;;
4616;SDS011;2321;42.704;23.384;2023-07-20T21:02:12;52.07;;;33.33;;
4616;SDS011;2321;42.704;23.384;2023-07-20T21:04:43;43.00;;;31.27;;
4616;SDS011;2321;42.704;23.384;2023-07-20T21:07:11;42.27;;;31.37;;
4616;SDS011;2321;42.704;23.384;2023-07-20T21:09:38;50.25;;;34.67;;
4616;SDS011;2321;42.704;23.384;2023-07-20T21:12:07;52.95;;;33.90;;
4616;SDS011;2321;42.704;23.384;2023-07-20T21:14:34;43.88;;;32.30;;
4616;SDS011;2321;42.704;23.384;2023-07-20T21:17:01;44.85;;;32.65;;
4616;SDS011;2321;42.704;23.384;2023-07-20T21:19:28;47.33;;;32.10;;
4616;SDS011;2321;42.704;23.384;2023-07-20T21:21:55;52.80;;;34.67;;
4616;SDS011;2321;42.704;23.384;2023-07-20T21:24:22;66.53;;;37.20;;
4616;SDS011;2321;42.704;23.384;2023-07-20T21:26:49;58.55;;;34.25;;
4616;SDS011;2321;42.704;23.384;2023-07-20T21:29:18;53.42;;;33.78;;
4616;SDS011;2321;42.704;23.384;2023-07-20T21:31:44;60.97;;;35.03;;
4616;SDS011;2321;42.704;23.384;2023-07-20T21:34:11;56.13;;;34.60;;
4616;SDS011;2321;42.704;23.384;2023-07-20T21:36:38;41.20;;;30.42;;
4616;SDS011;2321;42.704;23.384;2023-07-20T21:39:06;45.13;;;31.98;;
4616;SDS011;2321;42.704;23.384;2023-07-20T21:41:33;32.25;;;29.17;;
4616;SDS011;2321;42.704;23.384;2023-07-20T21:43:59;42.80;;;31.67;;
4616;SDS011;2321;42.704;23.384;2023-07-20T21:46:27;45.95;;;32.28;;
4616;SDS011;2321;42.704;23.384;2023-07-20T21:48:54;42.40;;;32.63;;
4616;SDS011;2321;42.704;23.384;2023-07-20T21:51:22;47.60;;;32.67;;
4616;SDS011;2321;42.704;23.384;2023-07-20T21:56:15;73.05;;;42.05;;
4616;SDS011;2321;42.704;23.384;2023-07-20T21:58:43;50.73;;;32.30;;
4616;SDS011;2321;42.704;23.384;2023-07-20T22:01:10;39.95;;;30.02;;
4616;SDS011;2321;42.704;23.384;2023-07-20T22:03:38;48.22;;;33.95;;
4616;SDS011;2321;42.704;23.384;2023-07-20T22:06:05;36.75;;;29.73;;
4616;SDS011;2321;42.704;23.384;2023-07-20T22:08:31;32.20;;;27.58;;
4616;SDS011;2321;42.704;23.384;2023-07-20T22:11:04;42.75;;;31.25;;
4616;SDS011;2321;42.704;23.384;2023-07-20T22:13:31;28.25;;;26.02;;
4616;SDS011;2321;42.704;23.384;2023-07-20T22:20:53;41.55;;;34.10;;
4616;SDS011;2321;42.704;23.384;2023-07-20T22:25:47;56.65;;;39.25;;
4616;SDS011;2321;42.704;23.384;2023-07-20T22:28:16;26.33;;;23.85;;
4616;SDS011;2321;42.704;23.384;2023-07-20T22:33:13;41.90;;;32.58;;
4616;SDS011;2321;42.704;23.384;2023-07-20T22:38:07;64.50;;;40.70;;
4616;SDS011;2321;42.704;23.384;2023-07-20T22:40:34;19.73;;;18.23;;
4616;SDS011;2321;42.704;23.384;2023-07-20T22:43:01;34.22;;;29.80;;
4616;SDS011;2321;42.704;23.384;2023-07-20T22:45:28;35.05;;;27.63;;
4616;SDS011;2321;42.704;23.384;2023-07-20T22:47:56;25.50;;;22.90;;
4616;SDS011;2321;42.704;23.384;2023-07-20T22:50:23;23.35;;;21.40;;
4616;SDS011;2321;42.704;23.384;2023-07-20T22:52:51;31.07;;;27.00;;
4616;SDS011;2321;42.704;23.384;2023-07-20T22:55:19;29.63;;;26.43;;
4616;SDS011;2321;42.704;23.384;2023-07-20T22:57:46;11.65;;;10.75;;
4616;SDS011;2321;42.704;23.384;2023-07-20T23:02:41;38.80;;;31.52;;
4616;SDS011;2321;42.704;23.384;2023-07-20T23:07:38;34.58;;;30.88;;
4616;SDS011;2321;42.704;23.384;2023-07-20T23:10:06;24.02;;;21.75;;
4616;SDS011;2321;42.704;23.384;2023-07-20T23:12:36;25.23;;;21.75;;
4616;SDS011;2321;42.704;23.384;2023-07-20T23:15:04;24.40;;;21.60;;
4616;SDS011;2321;42.704;23.384;2023-07-20T23:17:33;23.00;;;20.80;;
4616;SDS011;2321;42.704;23.384;2023-07-20T23:20:00;21.73;;;19.75;;
4616;SDS011;2321;42.704;23.384;2023-07-20T23:22:28;17.23;;;15.90;;
4616;SDS011;2321;42.704;23.384;2023-07-20T23:24:57;19.48;;;17.85;;
4616;SDS011;2321;42.704;23.384;2023-07-20T23:29:53;54.25;;;36.50;;
4616;SDS011;2321;42.704;23.384;2023-07-20T23:32:22;47.33;;;32.03;;
4616;SDS011;2321;42.704;23.384;2023-07-20T23:34:48;33.50;;;26.80;;
4616;SDS011;2321;42.704;23.384;2023-07-20T23:37:15;26.60;;;23.60;;
4616;SDS011;2321;42.704;23.384;2023-07-20T23:39:42;22.50;;;20.40;;
4616;SDS011;2321;42.704;23.384;2023-07-20T23:42:09;23.70;;;21.50;;
4616;SDS011;2321;42.704;23.384;2023-07-20T23:44:36;24.43;;;22.10;;
4616;SDS011;2321;42.704;23.384;2023-07-20T23:47:06;23.93;;;21.60;;
4616;SDS011;2321;42.704;23.384;2023-07-20T23:49:34;24.27;;;21.95;;
4616;SDS011;2321;42.704;23.384;2023-07-20T23:52:02;23.77;;;21.53;;
4616;SDS011;2321;42.704;23.384;2023-07-20T23:54:29;21.57;;;19.60;;
4616;SDS011;2321;42.704;23.384;2023-07-20T23:56:56;17.63;;;16.43;;
4616;SDS011;2321;42.704;23.384;2023-07-20T23:59:23;20.67;;;18.88;;
